sensor_id;sensor_type;location;lat;lon;timestamp;pressure;altitude;pressure_sealevel;temperature;humidity
59831;BME280;45711;50.108;13.712;2023-02-10T00:01:39;99488.47;;;-6.82;85.47
59831;BME280;45711;50.108;13.712;2023-02-10T00:04:05;99489.09;;;-6.90;85.46
59831;BME280;45711;50.108;13.712;2023-02-10T00:06:31;99486.56;;;-7.01;85.03
59831;BME280;45711;50.108;13.712;2023-02-10T00:08:59;99484.63;;;-7.09;85.62
59831;BME280;45711;50.108;13.712;2023-02-10T00:11:27;99475.09;;;-6.99;85.88
59831;BME280;45711;50.108;13.712;2023-02-10T00:14:12;99477.19;;;-7.14;85.14
59831;BME280;45711;50.108;13.712;2023-02-10T00:16:38;99470.78;;;-7.30;85.40
59831;BME280;45711;50.108;13.712;2023-02-10T00:19:03;99477.63;;;-7.29;85.95
59831;BME280;45711;50.108;13.712;2023-02-10T00:21:29;99474.28;;;-7.20;86.08
59831;BME280;45711;50.108;13.712;2023-02-10T00:23:54;99469.63;;;-7.38;85.80
59831;BME280;45711;50.108;13.712;2023-02-10T00:26:21;99469.88;;;-7.41;86.33
59831;BME280;45711;50.108;13.712;2023-02-10T00:28:47;99466.06;;;-7.37;86.17
59831;BME280;45711;50.108;13.712;2023-02-10T00:31:14;99460.09;;;-7.27;86.07
59831;BME280;45711;50.108;13.712;2023-02-10T00:33:40;99473.81;;;-7.46;85.86
59831;BME280;45711;50.108;13.712;2023-02-10T00:36:08;99465.63;;;-7.42;85.63
59831;BME280;45711;50.108;13.712;2023-02-10T00:38:35;99466.81;;;-7.46;86.78
59831;BME280;45711;50.108;13.712;2023-02-10T00:41:02;99474.53;;;-7.44;87.08
59831;BME280;45711;50.108;13.712;2023-02-10T00:43:29;99474.31;;;-7.31;86.50
59831;BME280;45711;50.108;13.712;2023-02-10T00:45:55;99476.00;;;-7.30;86.68
59831;BME280;45711;50.108;13.712;2023-02-10T00:48:20;99472.38;;;-7.18;86.16
59831;BME280;45711;50.108;13.712;2023-02-10T00:50:46;99474.06;;;-7.28;86.14
59831;BME280;45711;50.108;13.712;2023-02-10T00:53:11;99478.56;;;-7.51;85.59
59831;BME280;45711;50.108;13.712;2023-02-10T00:55:37;99478.81;;;-7.54;86.64
59831;BME280;45711;50.108;13.712;2023-02-10T00:58:02;99484.00;;;-7.54;86.21
59831;BME280;45711;50.108;13.712;2023-02-10T01:00:29;99478.00;;;-7.66;86.47
59831;BME280;45711;50.108;13.712;2023-02-10T01:02:55;99493.44;;;-7.86;86.73
59831;BME280;45711;50.108;13.712;2023-02-10T01:05:20;99477.72;;;-7.84;86.57
59831;BME280;45711;50.108;13.712;2023-02-10T01:07:46;99477.66;;;-7.94;87.15
59831;BME280;45711;50.108;13.712;2023-02-10T01:10:12;99482.84;;;-7.94;87.17
59831;BME280;45711;50.108;13.712;2023-02-10T01:12:38;99483.34;;;-8.00;86.83
59831;BME280;45711;50.108;13.712;2023-02-10T01:15:04;99482.03;;;-7.94;88.18
59831;BME280;45711;50.108;13.712;2023-02-10T01:17:31;99469.84;;;-7.94;87.37
59831;BME280;45711;50.108;13.712;2023-02-10T01:19:57;99464.28;;;-7.89;87.03
59831;BME280;45711;50.108;13.712;2023-02-10T01:22:23;99475.41;;;-7.98;87.26
59831;BME280;45711;50.108;13.712;2023-02-10T01:24:48;99478.75;;;-8.07;87.36
59831;BME280;45711;50.108;13.712;2023-02-10T01:27:14;99482.53;;;-8.12;87.42
59831;BME280;45711;50.108;13.712;2023-02-10T01:29:39;99470.44;;;-8.01;88.01
59831;BME280;45711;50.108;13.712;2023-02-10T01:32:05;99474.25;;;-7.41;89.85
59831;BME280;45711;50.108;13.712;2023-02-10T01:34:32;99481.69;;;-7.37;86.82
59831;BME280;45711;50.108;13.712;2023-02-10T01:36:57;99480.63;;;-7.66;86.74
59831;BME280;45711;50.108;13.712;2023-02-10T01:39:23;99498.72;;;-7.65;86.64
59831;BME280;45711;50.108;13.712;2023-02-10T01:41:49;99496.41;;;-7.79;87.26
59831;BME280;45711;50.108;13.712;2023-02-10T01:47:17;99497.47;;;-7.93;86.86
59831;BME280;45711;50.108;13.712;2023-02-10T01:49:47;99495.56;;;-7.79;87.02
59831;BME280;45711;50.108;13.712;2023-02-10T01:52:16;99502.28;;;-7.77;85.90
59831;BME280;45711;50.108;13.712;2023-02-10T01:54:45;99510.00;;;-7.87;86.52
59831;BME280;45711;50.108;13.712;2023-02-10T01:57:12;99511.69;;;-8.19;86.78
59831;BME280;45711;50.108;13.712;2023-02-10T01:59:39;99511.00;;;-8.32;86.49
59831;BME280;45711;50.108;13.712;2023-02-10T02:02:07;99503.91;;;-8.19;87.67
59831;BME280;45711;50.108;13.712;2023-02-10T02:04:33;99502.72;;;-8.04;86.99
59831;BME280;45711;50.108;13.712;2023-02-10T02:07:01;99503.91;;;-8.08;87.13
59831;BME280;45711;50.108;13.712;2023-02-10T02:09:27;99496.84;;;-8.28;nan
59831;BME280;45711;50.108;13.712;2023-02-10T02:11:59;99507.28;;;-8.40;87.67
59831;BME280;45711;50.108;13.712;2023-02-10T02:14:33;99509.75;;;-8.38;87.31
59831;BME280;45711;50.108;13.712;2023-02-10T02:17:07;99509.16;;;-8.42;88.06
59831;BME280;45711;50.108;13.712;2023-02-10T02:20:07;99508.31;;;-8.53;87.72
59831;BME280;45711;50.108;13.712;2023-02-10T02:23:29;99506.22;;;-8.48;87.84
59831;BME280;45711;50.108;13.712;2023-02-10T02:26:26;99499.16;;;-8.57;87.77
59831;BME280;45711;50.108;13.712;2023-02-10T02:29:13;99507.75;;;-8.68;87.49
59831;BME280;45711;50.108;13.712;2023-02-10T02:31:53;99512.59;;;-8.75;86.86
59831;BME280;45711;50.108;13.712;2023-02-10T02:34:27;99515.41;;;-8.78;87.72
59831;BME280;45711;50.108;13.712;2023-02-10T02:36:56;99510.22;;;-8.67;87.70
59831;BME280;45711;50.108;13.712;2023-02-10T02:39:22;99510.13;;;-8.65;87.19
59831;BME280;45711;50.108;13.712;2023-02-10T02:41:59;99519.19;;;-8.59;87.24
59831;BME280;45711;50.108;13.712;2023-02-10T02:44:30;99524.97;;;-8.67;86.67
59831;BME280;45711;50.108;13.712;2023-02-10T02:47:02;99522.13;;;-8.42;87.68
59831;BME280;45711;50.108;13.712;2023-02-10T02:49:37;99521.19;;;-8.41;87.22
59831;BME280;45711;50.108;13.712;2023-02-10T02:52:11;99524.50;;;-8.50;87.36
59831;BME280;45711;50.108;13.712;2023-02-10T02:54:42;99513.59;;;-8.32;87.02
59831;BME280;45711;50.108;13.712;2023-02-10T02:57:14;99511.81;;;-8.32;86.20
59831;BME280;45711;50.108;13.712;2023-02-10T02:59:48;99511.28;;;-8.47;86.39
59831;BME280;45711;50.108;13.712;2023-02-10T03:02:18;99524.88;;;-8.66;86.52
59831;BME280;45711;50.108;13.712;2023-02-10T03:04:45;99522.84;;;-8.62;87.78
59831;BME280;45711;50.108;13.712;2023-02-10T03:07:11;99522.72;;;-8.61;87.41
59831;BME280;45711;50.108;13.712;2023-02-10T03:09:37;99524.72;;;-8.75;87.67
59831;BME280;45711;50.108;13.712;2023-02-10T03:12:03;99532.75;;;-8.78;87.34
59831;BME280;45711;50.108;13.712;2023-02-10T03:14:29;99531.31;;;-8.82;87.09
59831;BME280;45711;50.108;13.712;2023-02-10T03:16:55;99521.91;;;-8.72;87.71
59831;BME280;45711;50.108;13.712;2023-02-10T03:19:22;99531.91;;;-8.68;87.95
59831;BME280;45711;50.108;13.712;2023-02-10T03:21:47;99518.00;;;-8.67;87.55
59831;BME280;45711;50.108;13.712;2023-02-10T03:24:13;99538.66;;;-8.65;86.96
59831;BME280;45711;50.108;13.712;2023-02-10T03:26:39;99535.09;;;-8.75;87.02
59831;BME280;45711;50.108;13.712;2023-02-10T03:29:05;99545.81;;;-8.80;86.97
59831;BME280;45711;50.108;13.712;2023-02-10T03:31:31;99544.91;;;-8.79;86.93
59831;BME280;45711;50.108;13.712;2023-02-10T03:33:57;99534.88;;;-8.83;86.81
59831;BME280;45711;50.108;13.712;2023-02-10T03:36:24;99544.78;;;-8.77;87.11
59831;BME280;45711;50.108;13.712;2023-02-10T03:38:49;99543.47;;;-8.72;87.01
59831;BME280;45711;50.108;13.712;2023-02-10T03:41:15;99548.06;;;-8.75;87.11
59831;BME280;45711;50.108;13.712;2023-02-10T03:43:40;99551.97;;;-8.81;86.53
59831;BME280;45711;50.108;13.712;2023-02-10T03:46:10;99541.09;;;-8.86;87.14
59831;BME280;45711;50.108;13.712;2023-02-10T03:48:36;99544.31;;;-8.82;86.86
59831;BME280;45711;50.108;13.712;2023-02-10T03:51:05;99547.50;;;-8.79;87.02
59831;BME280;45711;50.108;13.712;2023-02-10T03:53:32;99553.50;;;-8.78;87.32
59831;BME280;45711;50.108;13.712;2023-02-10T03:55:58;99552.19;;;-8.84;87.15
59831;BME280;45711;50.108;13.712;2023-02-10T03:58:24;99562.47;;;-8.82;87.06
59831;BME280;45711;50.108;13.712;2023-02-10T04:00:50;99559.22;;;-8.97;87.43
59831;BME280;45711;50.108;13.712;2023-02-10T04:03:15;99559.66;;;-8.68;87.11
59831;BME280;45711;50.108;13.712;2023-02-10T04:05:41;99555.38;;;-8.80;86.37
59831;BME280;45711;50.108;13.712;2023-02-10T04:08:07;99553.94;;;-8.96;86.88
59831;BME280;45711;50.108;13.712;2023-02-10T04:10:34;99570.88;;;-9.03;87.43
59831;BME280;45711;50.108;13.712;2023-02-10T04:12:59;99563.78;;;-9.12;86.87
59831;BME280;45711;50.108;13.712;2023-02-10T04:15:25;99565.75;;;-8.92;87.56
59831;BME280;45711;50.108;13.712;2023-02-10T04:17:51;99555.09;;;-9.00;87.52
59831;BME280;45711;50.108;13.712;2023-02-10T04:20:17;99561.59;;;-8.94;87.07
59831;BME280;45711;50.108;13.712;2023-02-10T04:22:42;99559.94;;;-8.95;86.68
59831;BME280;45711;50.108;13.712;2023-02-10T04:25:08;99562.66;;;-8.97;87.47
59831;BME280;45711;50.108;13.712;2023-02-10T04:27:35;99573.41;;;-8.90;87.41
59831;BME280;45711;50.108;13.712;2023-02-10T04:30:01;99576.34;;;-8.95;87.40
59831;BME280;45711;50.108;13.712;2023-02-10T04:32:26;99577.03;;;-8.93;87.98
59831;BME280;45711;50.108;13.712;2023-02-10T04:34:52;99582.84;;;-8.89;87.80
59831;BME280;45711;50.108;13.712;2023-02-10T04:37:18;99593.94;;;-8.87;87.77
59831;BME280;45711;50.108;13.712;2023-02-10T04:39:43;99591.94;;;-8.83;86.83
59831;BME280;45711;50.108;13.712;2023-02-10T04:42:09;99593.59;;;-8.82;87.88
59831;BME280;45711;50.108;13.712;2023-02-10T04:44:36;99597.97;;;-8.72;87.48
59831;BME280;45711;50.108;13.712;2023-02-10T04:47:02;99595.38;;;-8.83;87.13
59831;BME280;45711;50.108;13.712;2023-02-10T04:49:28;99587.13;;;-8.77;87.09
59831;BME280;45711;50.108;13.712;2023-02-10T04:51:53;99594.22;;;-8.79;86.66
59831;BME280;45711;50.108;13.712;2023-02-10T04:54:20;99589.91;;;-8.91;86.37
59831;BME280;45711;50.108;13.712;2023-02-10T04:56:45;99591.38;;;-9.11;87.12
59831;BME280;45711;50.108;13.712;2023-02-10T04:59:11;99596.56;;;-9.11;87.43
59831;BME280;45711;50.108;13.712;2023-02-10T05:01:38;99600.81;;;-9.10;86.94
59831;BME280;45711;50.108;13.712;2023-02-10T05:04:06;99597.25;;;-9.20;87.10
59831;BME280;45711;50.108;13.712;2023-02-10T05:06:32;99594.56;;;-9.07;87.34
59831;BME280;45711;50.108;13.712;2023-02-10T05:08:58;99595.94;;;-9.15;87.23
59831;BME280;45711;50.108;13.712;2023-02-10T05:11:23;99599.78;;;-9.31;87.28
59831;BME280;45711;50.108;13.712;2023-02-10T05:13:49;99600.56;;;-9.42;87.29
59831;BME280;45711;50.108;13.712;2023-02-10T05:16:15;99615.06;;;-9.40;87.23
59831;BME280;45711;50.108;13.712;2023-02-10T05:18:42;99619.94;;;-9.35;87.25
59831;BME280;45711;50.108;13.712;2023-02-10T05:21:09;99619.66;;;-9.43;86.76
59831;BME280;45711;50.108;13.712;2023-02-10T05:23:37;99618.81;;;-9.44;86.92
59831;BME280;45711;50.108;13.712;2023-02-10T05:26:03;99621.25;;;-9.29;87.45
59831;BME280;45711;50.108;13.712;2023-02-10T05:28:28;99626.97;;;-9.13;86.95
59831;BME280;45711;50.108;13.712;2023-02-10T05:30:54;99627.59;;;-9.33;86.96
59831;BME280;45711;50.108;13.712;2023-02-10T05:33:20;99624.50;;;-9.39;86.89
59831;BME280;45711;50.108;13.712;2023-02-10T05:35:59;99621.25;;;-9.29;87.10
59831;BME280;45711;50.108;13.712;2023-02-10T05:38:32;99618.88;;;-9.32;87.03
59831;BME280;45711;50.108;13.712;2023-02-10T05:40:58;99620.78;;;-9.23;85.83
59831;BME280;45711;50.108;13.712;2023-02-10T05:43:24;99633.31;;;-9.41;86.40
59831;BME280;45711;50.108;13.712;2023-02-10T05:45:49;99639.34;;;-9.53;86.39
59831;BME280;45711;50.108;13.712;2023-02-10T05:48:15;99639.59;;;-9.56;86.29
59831;BME280;45711;50.108;13.712;2023-02-10T05:50:40;99647.38;;;-9.32;86.99
59831;BME280;45711;50.108;13.712;2023-02-10T05:53:08;99639.94;;;-9.37;86.77
59831;BME280;45711;50.108;13.712;2023-02-10T05:55:36;99647.50;;;-9.34;86.73
59831;BME280;45711;50.108;13.712;2023-02-10T05:58:01;99649.69;;;-9.41;86.14
59831;BME280;45711;50.108;13.712;2023-02-10T06:00:27;99650.53;;;-9.40;86.59
59831;BME280;45711;50.108;13.712;2023-02-10T06:02:53;99649.97;;;-9.32;86.48
59831;BME280;45711;50.108;13.712;2023-02-10T06:05:18;99657.22;;;-9.25;86.52
59831;BME280;45711;50.108;13.712;2023-02-10T06:07:44;99656.94;;;-9.33;86.98
59831;BME280;45711;50.108;13.712;2023-02-10T06:10:11;99667.03;;;-9.17;87.12
59831;BME280;45711;50.108;13.712;2023-02-10T06:12:36;99658.53;;;-9.19;86.67
59831;BME280;45711;50.108;13.712;2023-02-10T06:15:02;99662.13;;;-9.33;86.38
59831;BME280;45711;50.108;13.712;2023-02-10T06:17:28;99664.78;;;-9.22;87.38
59831;BME280;45711;50.108;13.712;2023-02-10T06:19:53;99658.31;;;-9.16;86.80
59831;BME280;45711;50.108;13.712;2023-02-10T06:22:19;99659.16;;;-9.16;86.60
59831;BME280;45711;50.108;13.712;2023-02-10T06:24:44;99670.09;;;-8.88;85.88
59831;BME280;45711;50.108;13.712;2023-02-10T06:27:11;99662.41;;;-9.01;85.01
59831;BME280;45711;50.108;13.712;2023-02-10T06:29:37;99665.88;;;-9.13;85.87
59831;BME280;45711;50.108;13.712;2023-02-10T06:32:03;99673.38;;;-9.21;86.22
59831;BME280;45711;50.108;13.712;2023-02-10T06:34:29;99679.97;;;-9.04;86.51
59831;BME280;45711;50.108;13.712;2023-02-10T06:36:54;99676.56;;;-8.94;87.22
59831;BME280;45711;50.108;13.712;2023-02-10T06:39:20;99684.84;;;-8.89;86.88
59831;BME280;45711;50.108;13.712;2023-02-10T06:41:46;99692.88;;;-8.92;87.19
59831;BME280;45711;50.108;13.712;2023-02-10T06:44:12;99685.88;;;-8.67;87.43
59831;BME280;45711;50.108;13.712;2023-02-10T06:46:38;99687.31;;;-8.63;85.81
59831;BME280;45711;50.108;13.712;2023-02-10T06:49:04;99684.00;;;-8.65;86.45
59831;BME280;45711;50.108;13.712;2023-02-10T06:51:29;99682.72;;;-8.59;86.11
59831;BME280;45711;50.108;13.712;2023-02-10T06:53:55;99700.22;;;-8.50;85.01
59831;BME280;45711;50.108;13.712;2023-02-10T06:56:20;99705.19;;;-8.47;85.54
59831;BME280;45711;50.108;13.712;2023-02-10T06:58:46;99698.94;;;-8.33;85.35
59831;BME280;45711;50.108;13.712;2023-02-10T07:01:16;99701.47;;;-8.10;84.80
59831;BME280;45711;50.108;13.712;2023-02-10T07:03:42;99708.31;;;-7.97;83.87
59831;BME280;45711;50.108;13.712;2023-02-10T07:06:11;99700.97;;;-8.15;83.95
59831;BME280;45711;50.108;13.712;2023-02-10T07:08:37;99710.09;;;-7.98;84.37
59831;BME280;45711;50.108;13.712;2023-02-10T07:11:03;99710.00;;;-7.85;84.31
59831;BME280;45711;50.108;13.712;2023-02-10T07:13:28;99710.72;;;-7.83;84.59
59831;BME280;45711;50.108;13.712;2023-02-10T07:15:54;99711.53;;;-7.71;84.95
59831;BME280;45711;50.108;13.712;2023-02-10T07:18:21;99712.22;;;-7.58;85.80
59831;BME280;45711;50.108;13.712;2023-02-10T07:20:46;99703.38;;;-7.55;87.07
59831;BME280;45711;50.108;13.712;2023-02-10T07:23:12;99709.72;;;-7.26;86.66
59831;BME280;45711;50.108;13.712;2023-02-10T07:25:37;99704.34;;;-7.02;86.21
59831;BME280;45711;50.108;13.712;2023-02-10T07:28:03;99712.88;;;-7.00;86.38
59831;BME280;45711;50.108;13.712;2023-02-10T07:30:29;99716.47;;;-6.80;86.09
59831;BME280;45711;50.108;13.712;2023-02-10T07:32:54;99722.06;;;-6.52;85.07
59831;BME280;45711;50.108;13.712;2023-02-10T07:35:21;99712.78;;;-6.24;84.72
59831;BME280;45711;50.108;13.712;2023-02-10T07:37:47;99727.53;;;-6.35;84.70
59831;BME280;45711;50.108;13.712;2023-02-10T07:40:12;99722.34;;;-6.14;85.19
59831;BME280;45711;50.108;13.712;2023-02-10T07:42:38;99719.41;;;-6.20;85.47
59831;BME280;45711;50.108;13.712;2023-02-10T07:45:04;99710.97;;;-6.13;85.82
59831;BME280;45711;50.108;13.712;2023-02-10T07:47:29;99718.00;;;-6.03;85.53
59831;BME280;45711;50.108;13.712;2023-02-10T07:49:55;99725.38;;;-5.78;85.15
59831;BME280;45711;50.108;13.712;2023-02-10T07:52:22;99730.50;;;-5.67;85.15
59831;BME280;45711;50.108;13.712;2023-02-10T07:54:48;99737.94;;;-5.62;85.93
59831;BME280;45711;50.108;13.712;2023-02-10T07:57:14;99730.59;;;-5.47;86.02
59831;BME280;45711;50.108;13.712;2023-02-10T07:59:40;99729.97;;;-5.40;85.98
59831;BME280;45711;50.108;13.712;2023-02-10T08:02:07;99746.22;;;-5.26;86.16
59831;BME280;45711;50.108;13.712;2023-02-10T08:04:33;99746.09;;;-5.15;85.73
59831;BME280;45711;50.108;13.712;2023-02-10T08:06:58;99741.44;;;-5.02;84.96
59831;BME280;45711;50.108;13.712;2023-02-10T08:09:25;99740.59;;;-5.12;85.70
59831;BME280;45711;50.108;13.712;2023-02-10T08:11:51;99739.81;;;-4.84;84.29
59831;BME280;45711;50.108;13.712;2023-02-10T08:14:16;99741.66;;;-4.74;83.61
59831;BME280;45711;50.108;13.712;2023-02-10T08:16:42;99742.59;;;-4.75;83.92
59831;BME280;45711;50.108;13.712;2023-02-10T08:19:08;99747.97;;;-4.67;84.09
59831;BME280;45711;50.108;13.712;2023-02-10T08:21:33;99754.47;;;-4.52;83.61
59831;BME280;45711;50.108;13.712;2023-02-10T08:23:59;99763.94;;;-4.32;82.89
59831;BME280;45711;50.108;13.712;2023-02-10T08:26:26;99762.16;;;-4.41;84.39
59831;BME280;45711;50.108;13.712;2023-02-10T08:28:52;99774.53;;;-4.23;83.39
59831;BME280;45711;50.108;13.712;2023-02-10T08:31:20;99767.09;;;-4.18;83.62
59831;BME280;45711;50.108;13.712;2023-02-10T08:33:46;99770.53;;;-4.08;83.54
59831;BME280;45711;50.108;13.712;2023-02-10T08:36:14;99755.81;;;-4.09;83.77
59831;BME280;45711;50.108;13.712;2023-02-10T08:38:40;99755.50;;;-3.96;83.22
59831;BME280;45711;50.108;13.712;2023-02-10T08:41:05;99747.81;;;-3.98;84.33
59831;BME280;45711;50.108;13.712;2023-02-10T08:43:32;99751.53;;;-3.91;84.43
59831;BME280;45711;50.108;13.712;2023-02-10T08:45:59;99756.88;;;-3.92;84.13
59831;BME280;45711;50.108;13.712;2023-02-10T08:48:26;99759.38;;;-3.91;83.13
59831;BME280;45711;50.108;13.712;2023-02-10T08:50:52;99757.56;;;-3.90;82.94
59831;BME280;45711;50.108;13.712;2023-02-10T08:53:19;99759.31;;;-3.71;82.94
59831;BME280;45711;50.108;13.712;2023-02-10T08:55:44;99764.22;;;-3.49;81.17
59831;BME280;45711;50.108;13.712;2023-02-10T08:58:19;99764.50;;;-3.52;81.93
59831;BME280;45711;50.108;13.712;2023-02-10T09:00:46;99753.09;;;-3.70;82.17
59831;BME280;45711;50.108;13.712;2023-02-10T09:03:12;99762.78;;;-3.81;82.57
59831;BME280;45711;50.108;13.712;2023-02-10T09:05:37;99772.94;;;-3.68;83.04
59831;BME280;45711;50.108;13.712;2023-02-10T09:08:03;99779.41;;;-3.52;82.60
59831;BME280;45711;50.108;13.712;2023-02-10T09:10:29;99776.19;;;-3.46;82.33
59831;BME280;45711;50.108;13.712;2023-02-10T09:12:54;99770.78;;;-3.35;81.46
59831;BME280;45711;50.108;13.712;2023-02-10T09:15:20;99779.97;;;-3.21;81.26
59831;BME280;45711;50.108;13.712;2023-02-10T09:17:47;99767.81;;;-3.22;81.96
59831;BME280;45711;50.108;13.712;2023-02-10T09:20:13;99765.56;;;-3.35;82.43
59831;BME280;45711;50.108;13.712;2023-02-10T09:22:38;99763.94;;;-3.18;82.64
59831;BME280;45711;50.108;13.712;2023-02-10T09:25:04;99767.47;;;-3.00;82.05
59831;BME280;45711;50.108;13.712;2023-02-10T09:27:30;99769.13;;;-2.81;82.12
59831;BME280;45711;50.108;13.712;2023-02-10T09:29:56;99775.97;;;-2.70;82.59
59831;BME280;45711;50.108;13.712;2023-02-10T09:32:21;99782.44;;;-2.65;82.37
59831;BME280;45711;50.108;13.712;2023-02-10T09:34:48;99796.63;;;-2.67;83.00
59831;BME280;45711;50.108;13.712;2023-02-10T09:37:14;99780.53;;;-2.72;82.55
59831;BME280;45711;50.108;13.712;2023-02-10T09:39:39;99793.38;;;-2.79;81.54
59831;BME280;45711;50.108;13.712;2023-02-10T09:42:09;99796.91;;;-2.70;83.25
59831;BME280;45711;50.108;13.712;2023-02-10T09:44:44;99792.38;;;-2.68;82.96
59831;BME280;45711;50.108;13.712;2023-02-10T09:47:31;99805.47;;;-2.68;83.41
59831;BME280;45711;50.108;13.712;2023-02-10T09:50:20;99811.53;;;-2.68;83.43
59831;BME280;45711;50.108;13.712;2023-02-10T09:53:01;99810.72;;;-2.68;82.85
59831;BME280;45711;50.108;13.712;2023-02-10T09:55:31;99812.66;;;-2.70;83.09
59831;BME280;45711;50.108;13.712;2023-02-10T09:58:00;99811.53;;;-2.68;82.68
59831;BME280;45711;50.108;13.712;2023-02-10T10:00:30;99809.38;;;-2.55;84.65
59831;BME280;45711;50.108;13.712;2023-02-10T10:02:58;99801.16;;;-2.42;82.02
59831;BME280;45711;50.108;13.712;2023-02-10T10:05:38;99803.72;;;-2.32;82.56
59831;BME280;45711;50.108;13.712;2023-02-10T10:08:14;99799.38;;;-2.23;81.96
59831;BME280;45711;50.108;13.712;2023-02-10T10:10:45;99796.38;;;-2.29;82.47
59831;BME280;45711;50.108;13.712;2023-02-10T10:13:13;99802.75;;;-2.13;83.05
59831;BME280;45711;50.108;13.712;2023-02-10T10:15:56;99795.63;;;-2.03;82.83
59831;BME280;45711;50.108;13.712;2023-02-10T10:18:30;99799.69;;;-2.09;82.18
59831;BME280;45711;50.108;13.712;2023-02-10T10:21:05;99813.16;;;-2.04;82.22
59831;BME280;45711;50.108;13.712;2023-02-10T10:23:42;99813.69;;;-2.00;82.37
59831;BME280;45711;50.108;13.712;2023-02-10T10:26:18;99812.09;;;-1.93;82.34
59831;BME280;45711;50.108;13.712;2023-02-10T10:29:00;99815.78;;;-1.86;81.65
59831;BME280;45711;50.108;13.712;2023-02-10T10:31:29;99813.34;;;-1.79;81.39
59831;BME280;45711;50.108;13.712;2023-02-10T10:33:59;99803.38;;;-1.75;81.61
59831;BME280;45711;50.108;13.712;2023-02-10T10:36:33;99805.75;;;-1.64;80.36
59831;BME280;45711;50.108;13.712;2023-02-10T10:39:03;99801.34;;;-1.64;80.70
59831;BME280;45711;50.108;13.712;2023-02-10T10:41:33;99791.72;;;-1.55;80.82
59831;BME280;45711;50.108;13.712;2023-02-10T10:44:02;99789.78;;;-1.45;80.73
59831;BME280;45711;50.108;13.712;2023-02-10T10:46:33;99785.22;;;-1.43;79.31
59831;BME280;45711;50.108;13.712;2023-02-10T10:48:59;99777.53;;;-1.36;80.09
59831;BME280;45711;50.108;13.712;2023-02-10T10:51:25;99779.03;;;-1.34;79.91
59831;BME280;45711;50.108;13.712;2023-02-10T10:53:54;99780.06;;;-1.18;80.56
59831;BME280;45711;50.108;13.712;2023-02-10T10:56:26;99776.66;;;-1.11;79.77
59831;BME280;45711;50.108;13.712;2023-02-10T10:58:55;99778.38;;;-0.93;78.40
59831;BME280;45711;50.108;13.712;2023-02-10T11:01:32;99786.81;;;-0.82;79.47
59831;BME280;45711;50.108;13.712;2023-02-10T11:04:03;99778.38;;;-0.93;77.90
59831;BME280;45711;50.108;13.712;2023-02-10T11:06:33;99776.22;;;-0.98;78.06
59831;BME280;45711;50.108;13.712;2023-02-10T11:09:05;99773.94;;;-0.93;77.50
59831;BME280;45711;50.108;13.712;2023-02-10T11:11:33;99767.72;;;-0.84;78.00
59831;BME280;45711;50.108;13.712;2023-02-10T11:13:59;99758.88;;;-0.83;78.17
59831;BME280;45711;50.108;13.712;2023-02-10T11:16:27;99765.81;;;-0.73;78.37
59831;BME280;45711;50.108;13.712;2023-02-10T11:18:54;99770.78;;;-0.54;78.07
59831;BME280;45711;50.108;13.712;2023-02-10T11:21:20;99774.41;;;-0.55;77.66
59831;BME280;45711;50.108;13.712;2023-02-10T11:23:51;99772.59;;;-0.55;76.76
59831;BME280;45711;50.108;13.712;2023-02-10T11:26:21;99773.06;;;-0.59;77.23
59831;BME280;45711;50.108;13.712;2023-02-10T11:28:47;99766.16;;;-0.60;76.72
59831;BME280;45711;50.108;13.712;2023-02-10T11:31:22;99772.22;;;-0.68;77.10
59831;BME280;45711;50.108;13.712;2023-02-10T11:33:55;99769.78;;;-0.69;76.79
59831;BME280;45711;50.108;13.712;2023-02-10T11:36:30;99766.47;;;-0.63;76.95
59831;BME280;45711;50.108;13.712;2023-02-10T11:38:59;99752.84;;;-0.59;77.13
59831;BME280;45711;50.108;13.712;2023-02-10T11:41:30;99754.66;;;-0.59;77.19
59831;BME280;45711;50.108;13.712;2023-02-10T11:43:56;99741.34;;;-0.58;76.38
59831;BME280;45711;50.108;13.712;2023-02-10T11:46:24;99753.16;;;-0.62;76.91
59831;BME280;45711;50.108;13.712;2023-02-10T11:48:56;99761.88;;;-0.69;77.67
59831;BME280;45711;50.108;13.712;2023-02-10T11:51:22;99758.63;;;-0.55;77.79
59831;BME280;45711;50.108;13.712;2023-02-10T11:53:48;99758.63;;;-0.47;77.17
59831;BME280;45711;50.108;13.712;2023-02-10T11:56:18;99757.31;;;-0.43;76.79
59831;BME280;45711;50.108;13.712;2023-02-10T11:59:00;99754.69;;;-0.51;76.63
59831;BME280;45711;50.108;13.712;2023-02-10T12:01:49;99751.41;;;-0.37;77.07
59831;BME280;45711;50.108;13.712;2023-02-10T12:04:49;99757.47;;;-0.44;77.11
59831;BME280;45711;50.108;13.712;2023-02-10T12:07:25;99743.00;;;-0.48;76.90
59831;BME280;45711;50.108;13.712;2023-02-10T12:09:59;99750.72;;;-0.55;77.43
59831;BME280;45711;50.108;13.712;2023-02-10T12:12:33;99739.53;;;-0.57;77.34
59831;BME280;45711;50.108;13.712;2023-02-10T12:15:08;99742.19;;;-0.41;77.09
59831;BME280;45711;50.108;13.712;2023-02-10T12:17:45;99734.13;;;-0.47;77.39
59831;BME280;45711;50.108;13.712;2023-02-10T12:20:21;99735.78;;;-0.38;77.17
59831;BME280;45711;50.108;13.712;2023-02-10T12:23:08;99723.13;;;-0.27;76.86
59831;BME280;45711;50.108;13.712;2023-02-10T12:25:39;99727.75;;;-0.20;77.32
59831;BME280;45711;50.108;13.712;2023-02-10T12:28:14;99726.75;;;-0.19;77.68
59831;BME280;45711;50.108;13.712;2023-02-10T12:30:52;99720.66;;;0.05;76.59
59831;BME280;45711;50.108;13.712;2023-02-10T12:33:38;99720.16;;;-0.07;77.83
59831;BME280;45711;50.108;13.712;2023-02-10T12:36:13;99712.59;;;-0.18;77.17
59831;BME280;45711;50.108;13.712;2023-02-10T12:38:53;99714.59;;;-0.29;78.18
59831;BME280;45711;50.108;13.712;2023-02-10T12:41:25;99718.22;;;-0.30;78.20
59831;BME280;45711;50.108;13.712;2023-02-10T12:44:04;99712.59;;;-0.27;78.67
59831;BME280;45711;50.108;13.712;2023-02-10T12:46:45;99719.16;;;-0.22;77.87
59831;BME280;45711;50.108;13.712;2023-02-10T12:49:22;99719.53;;;-0.26;78.36
59831;BME280;45711;50.108;13.712;2023-02-10T12:52:14;99705.56;;;-0.26;78.40
59831;BME280;45711;50.108;13.712;2023-02-10T12:54:45;99701.91;;;-0.25;78.47
59831;BME280;45711;50.108;13.712;2023-02-10T12:57:19;99710.06;;;0.37;77.92
59831;BME280;45711;50.108;13.712;2023-02-10T12:59:52;99697.41;;;0.24;77.72
59831;BME280;45711;50.108;13.712;2023-02-10T13:02:23;99699.69;;;0.44;77.13